Time;durP1;ratioP1;P1;durP2;ratioP2;P2;SDS_P1;SDS_P2;PMS_P1;PMS_P2;Temp;Humidity;BMP_temperature;BMP_pressure;BME280_temperature;BME280_humidity;BME280_pressure;Samples;Min_cycle;Max_cycle;Signal;HPM_P1;HPM_P2
2024/01/08 00:00:03;;;;;;;0.52;0.43;;;;;;;;;;4969095;28;20050;-78
2024/01/08 00:02:31;;;;;;;0.70;0.70;;;;;;;;;;4970014;28;20047;-79
2024/01/08 00:04:58;;;;;;;0.82;0.82;;;;;;;;;;4970396;28;20129;-79
2024/01/08 00:07:25;;;;;;;1.08;1.08;;;;;;;;;;4972626;28;20046;-79
2024/01/08 00:09:53;;;;;;;1.48;1.38;;;;;;;;;;4967977;28;20055;-79
2024/01/08 00:12:20;;;;;;;0.43;0.43;;;;;;;;;;4965795;28;20043;-79
2024/01/08 00:14:49;;;;;;;0.32;0.32;;;;;;;;;;4963238;28;20043;-80
2024/01/08 00:17:16;;;;;;;2.95;2.00;;;;;;;;;;4962764;28;20047;-79
2024/01/08 00:19:43;;;;;;;1.25;1.15;;;;;;;;;;4965772;28;20054;-80
2024/01/08 00:22:11;;;;;;;0.73;0.70;;;;;;;;;;4965185;28;20053;-79
2024/01/08 00:24:38;;;;;;;2.47;2.20;;;;;;;;;;4963745;28;20054;-79
2024/01/08 00:27:05;;;;;;;2.92;2.13;;;;;;;;;;4962088;28;20050;-79
2024/01/08 00:29:33;;;;;;;3.40;2.63;;;;;;;;;;4963481;28;20133;-80
2024/01/08 00:32:00;;;;;;;1.95;1.85;;;;;;;;;;4961978;28;20627;-79
2024/01/08 00:34:28;;;;;;;1.60;0.65;;;;;;;;;;4970719;28;20043;-80
2024/01/08 00:36:56;;;;;;;0.98;0.98;;;;;;;;;;4975426;28;20042;-79
2024/01/08 00:39:25;;;;;;;0.32;0.32;;;;;;;;;;4971674;28;20054;-78
2024/01/08 00:41:53;;;;;;;0.40;0.40;;;;;;;;;;4976067;28;20087;-78
2024/01/08 00:44:21;;;;;;;0.20;0.20;;;;;;;;;;4977501;28;20150;-80
2024/01/08 00:46:48;;;;;;;0.38;0.38;;;;;;;;;;4977082;28;20046;-80
2024/01/08 00:49:16;;;;;;;0.50;0.50;;;;;;;;;;4975081;28;20671;-79
2024/01/08 00:51:43;;;;;;;0.40;0.40;;;;;;;;;;4979621;28;20054;-80
2024/01/08 00:54:10;;;;;;;0.90;0.90;;;;;;;;;;4981501;28;20058;-80
2024/01/08 00:56:38;;;;;;;0.25;0.25;;;;;;;;;;4980196;28;20102;-81
2024/01/08 00:59:05;;;;;;;1.08;1.08;;;;;;;;;;4983781;28;20125;-79
2024/01/08 01:01:33;;;;;;;0.75;0.70;;;;;;;;;;4982297;28;20142;-79
2024/01/08 01:04:00;;;;;;;1.05;0.98;;;;;;;;;;4978469;28;20073;-79
2024/01/08 01:06:28;;;;;;;0.73;0.73;;;;;;;;;;4988065;28;20073;-78
2024/01/08 01:08:56;;;;;;;1.83;1.73;;;;;;;;;;4978537;28;20455;-79
2024/01/08 01:11:24;;;;;;;1.67;1.45;;;;;;;;;;4975938;28;20161;-78
2024/01/08 01:13:51;;;;;;;0.30;0.30;;;;;;;;;;4976744;28;20136;-79
2024/01/08 01:16:19;;;;;;;0.75;0.55;;;;;;;;;;4977683;28;20054;-78
2024/01/08 01:18:46;;;;;;;1.02;1.02;;;;;;;;;;4975565;28;20050;-78
2024/01/08 01:21:20;;;;;;;0.25;0.25;;;;;;;;;;4982042;28;20046;-79
2024/01/08 01:23:48;;;;;;;1.20;0.77;;;;;;;;;;4979289;28;20515;-79
2024/01/08 01:26:15;;;;;;;1.10;1.02;;;;;;;;;;4985744;28;20034;-79
2024/01/08 01:28:43;;;;;;;0.10;0.10;;;;;;;;;;4981244;28;20138;-79
2024/01/08 01:31:10;;;;;;;0.30;0.30;;;;;;;;;;4988657;28;20058;-79
2024/01/08 01:33:38;;;;;;;0.50;0.50;;;;;;;;;;4986071;28;20061;-79
2024/01/08 01:36:06;;;;;;;0.25;0.22;;;;;;;;;;4979430;28;20074;-79
2024/01/08 01:38:34;;;;;;;1.00;0.93;;;;;;;;;;4981921;28;20049;-80
2024/01/08 01:41:01;;;;;;;0.75;0.75;;;;;;;;;;4985447;28;20054;-79
2024/01/08 01:43:32;;;;;;;1.90;1.52;;;;;;;;;;4984247;28;20043;-79
2024/01/08 01:46:05;;;;;;;0.75;0.75;;;;;;;;;;4983223;28;20137;-79
2024/01/08 01:48:32;;;;;;;0.30;0.30;;;;;;;;;;4986087;28;20038;-79
2024/01/08 01:51:02;;;;;;;0.93;0.93;;;;;;;;;;4988305;28;20054;-79
2024/01/08 01:53:30;;;;;;;0.95;0.95;;;;;;;;;;4980231;28;20516;-79
2024/01/08 01:55:57;;;;;;;0.10;0.10;;;;;;;;;;4985436;28;20055;-79
2024/01/08 01:58:25;;;;;;;0.10;0.10;;;;;;;;;;4976507;28;20047;-79
2024/01/08 02:00:53;;;;;;;0.17;0.17;;;;;;;;;;4975355;28;20114;-80
2024/01/08 02:03:20;;;;;;;0.30;0.30;;;;;;;;;;4981865;28;20058;-80
2024/01/08 02:05:48;;;;;;;0.93;0.93;;;;;;;;;;4983124;28;20062;-80
2024/01/08 02:08:16;;;;;;;1.15;0.98;;;;;;;;;;4986585;28;20047;-80
2024/01/08 02:10:44;;;;;;;0.32;0.32;;;;;;;;;;4977345;28;20046;-80
2024/01/08 02:13:11;;;;;;;0.30;0.30;;;;;;;;;;4974648;28;20587;-79
2024/01/08 02:15:39;;;;;;;0.60;0.60;;;;;;;;;;4973535;28;20505;-80
2024/01/08 02:18:06;;;;;;;0.13;0.13;;;;;;;;;;4976509;28;20583;-80
2024/01/08 02:20:34;;;;;;;0.93;0.93;;;;;;;;;;4970175;28;20043;-80
2024/01/08 02:23:01;;;;;;;0.10;0.10;;;;;;;;;;4970692;28;20050;-80
2024/01/08 02:25:31;;;;;;;1.00;1.00;;;;;;;;;;4972981;28;20046;-78
2024/01/08 02:27:58;;;;;;;0.15;0.15;;;;;;;;;;4979118;28;20723;-77
2024/01/08 02:30:25;;;;;;;1.13;1.13;;;;;;;;;;4974154;28;20117;-77
2024/01/08 02:32:53;;;;;;;1.05;0.93;;;;;;;;;;4978297;28;20070;-78
2024/01/08 02:35:20;;;;;;;0.28;0.28;;;;;;;;;;4975891;28;20619;-77
2024/01/08 02:37:48;;;;;;;1.58;1.48;;;;;;;;;;4979072;28;20046;-78
2024/01/08 02:40:15;;;;;;;2.22;2.03;;;;;;;;;;4980597;28;20493;-77
2024/01/08 02:42:42;;;;;;;0.43;0.30;;;;;;;;;;4976677;28;20074;-78
2024/01/08 02:45:10;;;;;;;1.20;0.35;;;;;;;;;;4974905;28;20109;-77
2024/01/08 02:47:40;;;;;;;1.60;0.88;;;;;;;;;;4977990;28;20138;-80
2024/01/08 02:50:08;;;;;;;0.20;0.20;;;;;;;;;;4974692;28;20072;-80
2024/01/08 02:52:35;;;;;;;1.42;0.93;;;;;;;;;;4983237;28;20047;-80
2024/01/08 02:55:03;;;;;;;0.60;0.60;;;;;;;;;;4976648;28;20055;-80
2024/01/08 02:57:30;;;;;;;0.40;0.40;;;;;;;;;;4970287;28;20081;-80
2024/01/08 02:59:58;;;;;;;0.85;0.40;;;;;;;;;;4971476;28;20066;-80
2024/01/08 03:02:26;;;;;;;0.80;0.65;;;;;;;;;;4970589;28;20039;-80
2024/01/08 03:04:53;;;;;;;1.15;1.10;;;;;;;;;;4968941;28;20046;-80
2024/01/08 03:07:20;;;;;;;0.38;0.38;;;;;;;;;;4979259;28;20133;-78
2024/01/08 03:09:49;;;;;;;1.13;1.13;;;;;;;;;;4979165;28;20047;-80
2024/01/08 03:12:16;;;;;;;0.45;0.45;;;;;;;;;;4970667;28;20057;-80
2024/01/08 03:14:44;;;;;;;0.40;0.40;;;;;;;;;;4979618;28;20052;-80
2024/01/08 03:17:11;;;;;;;0.45;0.45;;;;;;;;;;4974086;28;20051;-80
2024/01/08 03:19:38;;;;;;;0.73;0.73;;;;;;;;;;4976874;28;20046;-80
2024/01/08 03:22:06;;;;;;;1.65;1.33;;;;;;;;;;4972384;28;20171;-80
2024/01/08 03:24:34;;;;;;;0.40;0.40;;;;;;;;;;4973940;28;20044;-81
2024/01/08 03:27:01;;;;;;;0.68;0.68;;;;;;;;;;4972651;28;20054;-80
2024/01/08 03:29:29;;;;;;;2.05;0.88;;;;;;;;;;4984949;28;20051;-80
2024/01/08 03:31:56;;;;;;;1.75;1.65;;;;;;;;;;4970007;28;20069;-80
2024/01/08 03:34:24;;;;;;;2.13;1.92;;;;;;;;;;4980833;28;20088;-80
2024/01/08 03:36:51;;;;;;;0.32;0.32;;;;;;;;;;4973540;28;20057;-80
2024/01/08 03:39:18;;;;;;;0.20;0.20;;;;;;;;;;4977401;28;20131;-80
2024/01/08 03:41:46;;;;;;;0.52;0.52;;;;;;;;;;4976789;28;20093;-80
2024/01/08 03:44:14;;;;;;;0.93;0.90;;;;;;;;;;4971832;28;20050;-80
2024/01/08 03:46:42;;;;;;;1.08;1.05;;;;;;;;;;4979958;28;20061;-80
2024/01/08 03:49:11;;;;;;;2.17;1.80;;;;;;;;;;4979900;28;20082;-80
2024/01/08 03:51:39;;;;;;;0.10;0.10;;;;;;;;;;4986142;28;20062;-80
2024/01/08 03:54:07;;;;;;;3.03;1.10;;;;;;;;;;4984478;28;20049;-81
2024/01/08 03:56:34;;;;;;;0.30;0.30;;;;;;;;;;4986647;28;20069;-80
2024/01/08 03:59:02;;;;;;;0.28;0.28;;;;;;;;;;4972976;28;20047;-80
2024/01/08 04:01:29;;;;;;;0.65;0.65;;;;;;;;;;4977568;28;20064;-80
2024/01/08 04:03:56;;;;;;;0.73;0.60;;;;;;;;;;4974675;28;20060;-81
2024/01/08 04:06:25;;;;;;;0.60;0.60;;;;;;;;;;4972999;28;20045;-80
2024/01/08 04:08:52;;;;;;;2.25;1.90;;;;;;;;;;4976259;28;20062;-80
2024/01/08 04:11:19;;;;;;;0.50;0.50;;;;;;;;;;4983996;28;20055;-80
2024/01/08 04:13:47;;;;;;;1.45;1.25;;;;;;;;;;4973439;28;20123;-80
2024/01/08 04:16:14;;;;;;;1.85;1.13;;;;;;;;;;4991352;23;20415;-77
2024/01/08 04:18:42;;;;;;;0.25;0.25;;;;;;;;;;4962323;28;20264;-77
2024/01/08 04:21:09;;;;;;;0.30;0.30;;;;;;;;;;4963865;28;20365;-78
2024/01/08 04:23:37;;;;;;;0.63;0.63;;;;;;;;;;4948363;28;20540;-78
2024/01/08 04:26:05;;;;;;;1.50;1.40;;;;;;;;;;4952893;28;20050;-77
2024/01/08 04:28:32;;;;;;;0.80;0.73;;;;;;;;;;4960006;28;20047;-78
2024/01/08 04:31:00;;;;;;;0.70;0.65;;;;;;;;;;4962364;28;20078;-78
2024/01/08 04:33:28;;;;;;;0.10;0.10;;;;;;;;;;4958523;28;20070;-78
2024/01/08 04:35:56;;;;;;;0.55;0.45;;;;;;;;;;4961189;28;20043;-78
2024/01/08 04:38:24;;;;;;;0.57;0.57;;;;;;;;;;4961174;28;20051;-79
2024/01/08 04:40:51;;;;;;;0.50;0.50;;;;;;;;;;4963264;28;20505;-79
2024/01/08 04:43:19;;;;;;;1.83;1.70;;;;;;;;;;4963617;28;20410;-79
2024/01/08 04:45:46;;;;;;;0.20;0.20;;;;;;;;;;4962331;28;20135;-79
2024/01/08 04:48:14;;;;;;;0.52;0.52;;;;;;;;;;4958450;28;20616;-79
2024/01/08 04:50:41;;;;;;;1.15;1.08;;;;;;;;;;4966543;28;20072;-79
2024/01/08 04:53:09;;;;;;;1.55;0.90;;;;;;;;;;4959691;28;20070;-78
2024/01/08 04:55:37;;;;;;;0.10;0.10;;;;;;;;;;4960044;28;20050;-78
2024/01/08 04:58:06;;;;;;;0.90;0.90;;;;;;;;;;4953882;28;20441;-79
2024/01/08 05:00:34;;;;;;;0.30;0.30;;;;;;;;;;4951082;28;20066;-78
2024/01/08 05:03:01;;;;;;;0.50;0.40;;;;;;;;;;4952444;28;20428;-79
2024/01/08 05:05:29;;;;;;;2.20;1.67;;;;;;;;;;4956698;28;20725;-79
2024/01/08 05:07:56;;;;;;;0.60;0.60;;;;;;;;;;4958621;28;20043;-78
2024/01/08 05:10:25;;;;;;;1.98;1.67;;;;;;;;;;4966966;28;20528;-78
2024/01/08 05:12:53;;;;;;;0.20;0.20;;;;;;;;;;4966250;28;20070;-79
2024/01/08 05:15:20;;;;;;;1.40;1.20;;;;;;;;;;4964709;28;20467;-79
2024/01/08 05:17:48;;;;;;;0.20;0.20;;;;;;;;;;4966985;28;20050;-79
2024/01/08 05:20:16;;;;;;;0.38;0.38;;;;;;;;;;4971007;28;20055;-78
2024/01/08 05:22:44;;;;;;;1.35;1.27;;;;;;;;;;4968498;28;20437;-79
2024/01/08 05:25:12;;;;;;;0.68;0.68;;;;;;;;;;4967909;28;20039;-79
2024/01/08 05:27:39;;;;;;;0.63;0.63;;;;;;;;;;4960566;28;20413;-79
2024/01/08 05:30:07;;;;;;;0.10;0.10;;;;;;;;;;4954387;28;20535;-79
2024/01/08 05:32:35;;;;;;;1.60;1.50;;;;;;;;;;4964847;28;20090;-79
2024/01/08 05:35:03;;;;;;;1.20;0.80;;;;;;;;;;4964945;28;20137;-79
2024/01/08 05:37:31;;;;;;;1.17;1.02;;;;;;;;;;4962482;28;20077;-76
2024/01/08 05:39:59;;;;;;;3.03;2.72;;;;;;;;;;4963631;28;20050;-79
2024/01/08 05:42:26;;;;;;;0.30;0.30;;;;;;;;;;4965471;28;20130;-78
2024/01/08 05:44:54;;;;;;;0.20;0.20;;;;;;;;;;4960326;28;20057;-79
2024/01/08 05:47:22;;;;;;;0.30;0.30;;;;;;;;;;4951424;28;20066;-78
2024/01/08 05:49:49;;;;;;;0.10;0.10;;;;;;;;;;4956723;28;20053;-78
2024/01/08 05:52:17;;;;;;;0.00;0.00;;;;;;;;;;4959879;28;20082;-78
2024/01/08 05:54:45;;;;;;;0.50;0.50;;;;;;;;;;4959467;28;20138;-78
2024/01/08 05:57:12;;;;;;;0.40;0.40;;;;;;;;;;4959186;28;20051;-78
2024/01/08 05:59:40;;;;;;;0.30;0.30;;;;;;;;;;4957276;28;20173;-78
2024/01/08 06:02:09;;;;;;;0.80;0.80;;;;;;;;;;4954601;28;20054;-78
2024/01/08 06:04:37;;;;;;;0.20;0.20;;;;;;;;;;4960547;28;20054;-78
2024/01/08 06:07:05;;;;;;;0.35;0.35;;;;;;;;;;4954896;28;20050;-79
2024/01/08 06:09:33;;;;;;;1.90;1.80;;;;;;;;;;4948524;28;20154;-78
2024/01/08 06:12:01;;;;;;;8.55;0.95;;;;;;;;;;4958957;28;20051;-78
2024/01/08 06:14:28;;;;;;;0.45;0.45;;;;;;;;;;4959973;28;20488;-78
2024/01/08 06:16:56;;;;;;;0.45;0.30;;;;;;;;;;4956337;28;20058;-78
2024/01/08 06:19:24;;;;;;;0.20;0.20;;;;;;;;;;4957838;28;20058;-78
2024/01/08 06:21:52;;;;;;;1.63;1.52;;;;;;;;;;4956242;28;20126;-78
2024/01/08 06:24:19;;;;;;;0.90;0.68;;;;;;;;;;4962341;28;20162;-76
2024/01/08 06:26:47;;;;;;;0.55;0.55;;;;;;;;;;4951668;28;20047;-78
2024/01/08 06:29:16;;;;;;;0.90;0.90;;;;;;;;;;4964935;28;20050;-79
2024/01/08 06:31:44;;;;;;;0.45;0.45;;;;;;;;;;4942385;28;20054;-79
2024/01/08 06:34:12;;;;;;;0.20;0.20;;;;;;;;;;4945546;28;20512;-78
2024/01/08 06:36:40;;;;;;;0.68;0.68;;;;;;;;;;4953249;28;20043;-78
2024/01/08 06:39:11;;;;;;;0.68;0.68;;;;;;;;;;4954322;28;20161;-78
2024/01/08 06:41:39;;;;;;;0.75;0.73;;;;;;;;;;4953962;28;20539;-79
2024/01/08 06:44:07;;;;;;;0.82;0.77;;;;;;;;;;4954442;28;20050;-78
2024/01/08 06:46:34;;;;;;;0.90;0.85;;;;;;;;;;4960138;28;20528;-78
2024/01/08 06:49:02;;;;;;;0.77;0.77;;;;;;;;;;4957664;28;20200;-78
2024/01/08 06:51:30;;;;;;;1.00;1.00;;;;;;;;;;4960107;28;20098;-78
2024/01/08 06:53:57;;;;;;;0.40;0.40;;;;;;;;;;4961515;28;20131;-78
2024/01/08 06:56:25;;;;;;;0.30;0.30;;;;;;;;;;4953778;28;20047;-78
2024/01/08 06:58:53;;;;;;;0.63;0.63;;;;;;;;;;4950023;28;20047;-79
2024/01/08 07:01:21;;;;;;;1.23;0.95;;;;;;;;;;4954419;28;20042;-78
2024/01/08 07:03:48;;;;;;;0.50;0.50;;;;;;;;;;4960489;28;20057;-78
2024/01/08 07:06:16;;;;;;;2.20;1.55;;;;;;;;;;4962086;28;20644;-79
2024/01/08 07:08:45;;;;;;;0.20;0.20;;;;;;;;;;4966416;28;20054;-78
2024/01/08 07:11:20;;;;;;;0.25;0.25;;;;;;;;;;4951936;28;20043;-79
2024/01/08 07:13:49;;;;;;;0.52;0.52;;;;;;;;;;4941741;28;20198;-78
2024/01/08 07:16:18;;;;;;;1.48;0.85;;;;;;;;;;4944311;28;20057;-79
2024/01/08 07:18:45;;;;;;;2.47;2.28;;;;;;;;;;4947385;28;20054;-78
2024/01/08 07:21:16;;;;;;;0.32;0.32;;;;;;;;;;4946425;28;20061;-78
2024/01/08 07:23:45;;;;;;;0.75;0.75;;;;;;;;;;4950557;28;20062;-78
2024/01/08 07:26:14;;;;;;;0.30;0.30;;;;;;;;;;4952207;28;20043;-78
2024/01/08 07:28:45;;;;;;;1.65;0.93;;;;;;;;;;4948238;28;20055;-78
2024/01/08 07:31:15;;;;;;;2.72;1.80;;;;;;;;;;4953131;28;20564;-78
2024/01/08 07:33:43;;;;;;;0.73;0.73;;;;;;;;;;4946841;28;20145;-78
2024/01/08 07:36:11;;;;;;;2.88;2.67;;;;;;;;;;4951257;28;20047;-78
2024/01/08 07:38:39;;;;;;;2.95;1.40;;;;;;;;;;4960604;28;20046;-79
2024/01/08 07:41:09;;;;;;;0.80;0.80;;;;;;;;;;4952696;28;20051;-78
2024/01/08 07:43:37;;;;;;;2.38;1.77;;;;;;;;;;4951978;28;20110;-78
2024/01/08 07:46:05;;;;;;;0.73;0.73;;;;;;;;;;4953481;28;20125;-79
2024/01/08 07:48:33;;;;;;;0.57;0.57;;;;;;;;;;4946584;28;20045;-79
2024/01/08 07:51:01;;;;;;;4.35;0.50;;;;;;;;;;4962172;28;20057;-80
2024/01/08 07:53:30;;;;;;;3.95;3.05;;;;;;;;;;4951140;28;20490;-79
2024/01/08 07:55:58;;;;;;;1.30;1.05;;;;;;;;;;4948888;28;20417;-79
2024/01/08 07:58:26;;;;;;;0.73;0.73;;;;;;;;;;4949964;28;21875;-79
2024/01/08 08:01:07;;;;;;;0.20;0.20;;;;;;;;;;4954855;28;20138;-79
2024/01/08 08:03:35;;;;;;;0.82;0.82;;;;;;;;;;4957489;28;20097;-79
2024/01/08 08:06:03;;;;;;;1.25;1.17;;;;;;;;;;4965153;28;20057;-79
2024/01/08 08:08:34;;;;;;;0.70;0.70;;;;;;;;;;4959623;28;20126;-79
2024/01/08 08:11:03;;;;;;;0.10;0.10;;;;;;;;;;4962455;28;20047;-79
2024/01/08 08:13:31;;;;;;;0.60;0.60;;;;;;;;;;4964536;28;20047;-79
2024/01/08 08:15:59;;;;;;;1.45;0.95;;;;;;;;;;4961593;28;20141;-79
2024/01/08 08:18:27;;;;;;;1.10;0.70;;;;;;;;;;4962953;28;20501;-79
2024/01/08 08:20:57;;;;;;;0.20;0.20;;;;;;;;;;4961434;28;20053;-80
2024/01/08 08:23:25;;;;;;;0.88;0.88;;;;;;;;;;4953042;28;20247;-80
2024/01/08 08:25:53;;;;;;;2.03;1.67;;;;;;;;;;4949845;28;21231;-79
2024/01/08 08:28:21;;;;;;;1.40;0.98;;;;;;;;;;4963321;28;20046;-80
2024/01/08 08:30:50;;;;;;;0.70;0.70;;;;;;;;;;4971660;28;20046;-80
2024/01/08 08:33:19;;;;;;;0.65;0.65;;;;;;;;;;4972091;28;20098;-79
2024/01/08 08:35:47;;;;;;;0.40;0.40;;;;;;;;;;4963405;28;20493;-79
2024/01/08 08:38:15;;;;;;;0.30;0.30;;;;;;;;;;4969889;28;20058;-79
2024/01/08 08:40:43;;;;;;;0.57;0.57;;;;;;;;;;4964697;28;20149;-79
2024/01/08 08:43:11;;;;;;;2.17;1.85;;;;;;;;;;4960136;28;20510;-79
2024/01/08 08:45:39;;;;;;;0.20;0.20;;;;;;;;;;4966002;28;20058;-79
2024/01/08 08:48:09;;;;;;;3.03;1.30;;;;;;;;;;4969460;28;20050;-79
2024/01/08 08:50:37;;;;;;;0.77;0.77;;;;;;;;;;4964074;28;20501;-79
2024/01/08 08:53:04;;;;;;;0.77;0.77;;;;;;;;;;4971022;28;20078;-79
2024/01/08 08:55:32;;;;;;;1.40;1.08;;;;;;;;;;4970384;28;20050;-79
2024/01/08 08:58:00;;;;;;;0.30;0.30;;;;;;;;;;4963759;28;20043;-79
2024/01/08 09:00:28;;;;;;;2.33;2.13;;;;;;;;;;4961382;28;20489;-79
2024/01/08 09:02:56;;;;;;;2.78;2.58;;;;;;;;;;4967034;28;20543;-79
2024/01/08 09:05:26;;;;;;;0.95;0.90;;;;;;;;;;4967477;28;20051;-79
2024/01/08 09:08:06;;;;;;;2.08;1.92;;;;;;;;;;4962117;28;20047;-79
2024/01/08 09:10:34;;;;;;;1.40;1.33;;;;;;;;;;4962816;28;20043;-79
2024/01/08 09:13:02;;;;;;;0.70;0.65;;;;;;;;;;4963375;28;20057;-79
2024/01/08 09:15:29;;;;;;;0.85;0.85;;;;;;;;;;4958912;28;20377;-79
2024/01/08 09:17:58;;;;;;;1.05;0.98;;;;;;;;;;4962655;28;20089;-78
2024/01/08 09:20:26;;;;;;;2.63;2.10;;;;;;;;;;4970302;28;20065;-78
2024/01/08 09:22:53;;;;;;;1.55;1.20;;;;;;;;;;4957311;28;20086;-78
2024/01/08 09:25:21;;;;;;;0.40;0.40;;;;;;;;;;4964236;28;20046;-78
2024/01/08 09:27:49;;;;;;;1.15;1.05;;;;;;;;;;4964274;28;20043;-78
2024/01/08 09:30:17;;;;;;;0.93;0.93;;;;;;;;;;4963694;28;20171;-78
2024/01/08 09:32:47;;;;;;;2.58;2.35;;;;;;;;;;4964297;28;20057;-78
2024/01/08 09:35:15;;;;;;;2.47;2.30;;;;;;;;;;4962165;28;20417;-79
2024/01/08 09:37:44;;;;;;;0.60;0.60;;;;;;;;;;4963022;28;20097;-79
2024/01/08 09:40:12;;;;;;;0.35;0.35;;;;;;;;;;4964621;28;20055;-79
2024/01/08 09:42:39;;;;;;;1.27;1.25;;;;;;;;;;4964324;28;20133;-78
2024/01/08 09:45:21;;;;;;;0.93;0.88;;;;;;;;;;4961839;28;20050;-78
2024/01/08 09:47:50;;;;;;;1.35;1.27;;;;;;;;;;4961475;28;20051;-78
2024/01/08 09:50:18;;;;;;;1.65;1.55;;;;;;;;;;4973412;28;20134;-78
2024/01/08 09:52:50;;;;;;;0.68;0.57;;;;;;;;;;4966540;28;20047;-78
2024/01/08 09:55:19;;;;;;;0.45;0.43;;;;;;;;;;4966734;28;20057;-78
2024/01/08 09:57:46;;;;;;;1.42;1.33;;;;;;;;;;4970086;28;20078;-78
2024/01/08 10:00:14;;;;;;;0.13;0.13;;;;;;;;;;4962521;28;20563;-78
2024/01/08 10:02:42;;;;;;;0.43;0.17;;;;;;;;;;4967577;28;20567;-78
2024/01/08 10:05:10;;;;;;;1.67;1.05;;;;;;;;;;4968238;28;20057;-79
2024/01/08 10:07:38;;;;;;;0.50;0.50;;;;;;;;;;4965040;28;20086;-78
2024/01/08 10:10:06;;;;;;;1.65;0.22;;;;;;;;;;4967116;28;20579;-78
2024/01/08 10:12:36;;;;;;;2.17;1.33;;;;;;;;;;4966134;28;20497;-78
2024/01/08 10:15:29;;;;;;;1.33;1.23;;;;;;;;;;4964769;28;20047;-78
2024/01/08 10:18:00;;;;;;;0.68;0.68;;;;;;;;;;4947186;28;20405;-76
2024/01/08 10:20:28;;;;;;;0.10;0.10;;;;;;;;;;4948431;28;20140;-76
2024/01/08 10:23:06;;;;;;;1.38;1.27;;;;;;;;;;4951132;28;20425;-76
2024/01/08 10:25:35;;;;;;;1.27;1.17;;;;;;;;;;4946675;28;20047;-78
2024/01/08 10:28:03;;;;;;;2.47;2.25;;;;;;;;;;4962203;28;24422;-77
2024/01/08 10:30:31;;;;;;;1.25;1.15;;;;;;;;;;4950525;28;20047;-75
2024/01/08 10:32:59;;;;;;;1.05;1.05;;;;;;;;;;4949323;28;20058;-76
2024/01/08 10:35:29;;;;;;;0.80;0.80;;;;;;;;;;4951874;28;20516;-78
2024/01/08 10:37:59;;;;;;;;;;;;;;;;;;4945843;28;20055;-77
2024/01/08 10:40:30;;;;;;;1.98;0.80;;;;;;;;;;4951305;28;19922;-75
2024/01/08 10:42:59;;;;;;;4.28;3.05;;;;;;;;;;4946204;28;20134;-77
2024/01/08 10:45:26;;;;;;;0.38;0.38;;;;;;;;;;4946569;28;20493;-77
2024/01/08 10:48:02;;;;;;;1.08;1.02;;;;;;;;;;4953310;28;20073;-78
2024/01/08 10:50:31;;;;;;;0.28;0.28;;;;;;;;;;4954348;28;20059;-81
2024/01/08 10:52:58;;;;;;;1.65;1.48;;;;;;;;;;4951639;28;20043;-82
2024/01/08 10:55:26;;;;;;;1.85;0.60;;;;;;;;;;4948610;28;20082;-78
2024/01/08 10:57:53;;;;;;;0.75;0.75;;;;;;;;;;4951361;28;20062;-78
2024/01/08 11:00:21;;;;;;;1.85;1.27;;;;;;;;;;4948372;28;20133;-78
2024/01/08 11:02:50;;;;;;;0.30;0.30;;;;;;;;;;4948758;28;20057;-78
2024/01/08 11:05:20;;;;;;;0.60;0.60;;;;;;;;;;4949519;28;20059;-78
2024/01/08 11:07:50;;;;;;;0.27;0.27;;;;;;;;;;4945704;28;20509;-78
2024/01/08 11:10:18;;;;;;;0.60;0.60;;;;;;;;;;4946948;28;20309;-78
2024/01/08 11:12:54;;;;;;;0.65;0.65;;;;;;;;;;4960729;28;20112;-77
2024/01/08 11:15:26;;;;;;;1.35;1.25;;;;;;;;;;4947306;28;20047;-77
2024/01/08 11:17:55;;;;;;;1.52;1.42;;;;;;;;;;4946882;28;20047;-78
2024/01/08 11:20:40;;;;;;;4.15;3.17;;;;;;;;;;4953009;28;20065;-77
2024/01/08 11:23:28;;;;;;;0.10;0.10;;;;;;;;;;4950750;28;20198;-77
2024/01/08 11:25:55;;;;;;;2.40;2.20;;;;;;;;;;4946813;28;20047;-78
2024/01/08 11:28:23;;;;;;;2.40;2.20;;;;;;;;;;4951123;28;20448;-78
2024/01/08 11:31:00;;;;;;;0.40;0.40;;;;;;;;;;4947551;28;20051;-78
2024/01/08 11:33:37;;;;;;;1.50;1.40;;;;;;;;;;4946155;28;20047;-78
2024/01/08 11:36:12;;;;;;;0.88;0.88;;;;;;;;;;4950012;28;20469;-78
2024/01/08 11:38:40;;;;;;;1.40;1.30;;;;;;;;;;4949372;28;20054;-78
2024/01/08 11:41:08;;;;;;;0.77;0.77;;;;;;;;;;4946519;28;20049;-78
2024/01/08 11:43:39;;;;;;;1.67;1.33;;;;;;;;;;4948728;28;20524;-78
2024/01/08 11:46:09;;;;;;;0.93;0.93;;;;;;;;;;4947782;28;20091;-77
2024/01/08 11:48:37;;;;;;;0.38;0.38;;;;;;;;;;4940283;28;20564;-77
2024/01/08 11:51:05;;;;;;;1.85;1.75;;;;;;;;;;4945604;28;20047;-78
2024/01/08 11:53:32;;;;;;;1.60;1.50;;;;;;;;;;4955227;28;20482;-79
2024/01/08 11:56:04;;;;;;;1.25;0.75;;;;;;;;;;4953752;28;20055;-78
2024/01/08 11:58:31;;;;;;;0.10;0.10;;;;;;;;;;4950824;28;20050;-78
2024/01/08 12:00:59;;;;;;;0.63;0.60;;;;;;;;;;4946272;28;20055;-78
2024/01/08 12:03:27;;;;;;;1.05;1.00;;;;;;;;;;4967014;28;20058;-78
2024/01/08 12:06:07;;;;;;;0.30;0.30;;;;;;;;;;4949895;28;20051;-78
2024/01/08 12:08:35;;;;;;;0.57;0.57;;;;;;;;;;4948388;28;20043;-78
2024/01/08 12:11:04;;;;;;;0.43;0.43;;;;;;;;;;4950173;28;20047;-78
2024/01/08 12:13:32;;;;;;;0.43;0.43;;;;;;;;;;4948495;28;20110;-78
2024/01/08 12:16:01;;;;;;;0.70;0.68;;;;;;;;;;4947636;28;20123;-82
2024/01/08 12:18:29;;;;;;;3.40;2.97;;;;;;;;;;4956484;28;20059;-82
2024/01/08 12:20:57;;;;;;;2.95;2.28;;;;;;;;;;4948161;28;20126;-82
2024/01/08 12:23:26;;;;;;;1.33;1.33;;;;;;;;;;4944512;28;20057;-81
2024/01/08 12:25:54;;;;;;;1.02;1.02;;;;;;;;;;4950970;28;20059;-82
2024/01/08 12:28:21;;;;;;;4.40;3.35;;;;;;;;;;4954316;28;20087;-78
2024/01/08 12:30:52;;;;;;;1.20;0.57;;;;;;;;;;4942934;28;20509;-78
2024/01/08 12:33:21;;;;;;;0.55;0.50;;;;;;;;;;4948025;28;20055;-78
2024/01/08 12:35:54;;;;;;;1.77;1.38;;;;;;;;;;4947987;28;20114;-78
2024/01/08 12:38:22;;;;;;;1.98;1.70;;;;;;;;;;4935828;28;20063;-79
2024/01/08 12:40:51;;;;;;;6.43;1.42;;;;;;;;;;4942065;28;20055;-79
2024/01/08 12:43:19;;;;;;;0.95;0.95;;;;;;;;;;4944100;28;20056;-79
2024/01/08 12:45:47;;;;;;;0.82;0.82;;;;;;;;;;4944583;28;20447;-79
2024/01/08 12:48:16;;;;;;;0.47;0.47;;;;;;;;;;4943236;28;20047;-80
2024/01/08 12:50:44;;;;;;;1.65;1.23;;;;;;;;;;4941125;28;20066;-80
2024/01/08 12:53:11;;;;;;;0.40;0.40;;;;;;;;;;4937861;28;20122;-79
2024/01/08 12:55:39;;;;;;;1.67;1.55;;;;;;;;;;4937982;28;20146;-80
2024/01/08 12:58:07;;;;;;;0.20;0.20;;;;;;;;;;4942132;28;20091;-79
2024/01/08 13:00:35;;;;;;;0.85;0.60;;;;;;;;;;4939033;28;20066;-79
2024/01/08 13:03:02;;;;;;;0.32;0.32;;;;;;;;;;4939755;28;20117;-79
2024/01/08 13:05:30;;;;;;;0.85;0.85;;;;;;;;;;4948613;28;20124;-79
2024/01/08 13:07:58;;;;;;;1.58;1.58;;;;;;;;;;4962702;28;20522;-80
2024/01/08 13:10:26;;;;;;;0.77;0.77;;;;;;;;;;4943933;28;20051;-79
2024/01/08 13:12:54;;;;;;;1.10;1.00;;;;;;;;;;4957143;28;20047;-79
2024/01/08 13:15:21;;;;;;;1.80;1.10;;;;;;;;;;4944201;28;20319;-79
2024/01/08 13:17:49;;;;;;;1.13;1.13;;;;;;;;;;4938723;28;20051;-79
2024/01/08 13:20:17;;;;;;;0.75;0.73;;;;;;;;;;4944901;28;20055;-79
2024/01/08 13:22:53;;;;;;;1.65;1.00;;;;;;;;;;4938160;28;20658;-79
2024/01/08 13:25:22;;;;;;;1.85;1.73;;;;;;;;;;4950339;28;20138;-73
2024/01/08 13:27:50;;;;;;;1.65;1.35;;;;;;;;;;4950980;28;20066;-74
2024/01/08 13:30:19;;;;;;;0.80;0.80;;;;;;;;;;4945945;28;20065;-75
2024/01/08 13:32:46;;;;;;;1.42;1.33;;;;;;;;;;4943345;28;20050;-75
2024/01/08 13:35:14;;;;;;;1.63;1.23;;;;;;;;;;4950072;28;20043;-77
2024/01/08 13:37:42;;;;;;;2.05;1.95;;;;;;;;;;4949858;28;20053;-76
2024/01/08 13:40:10;;;;;;;0.90;0.65;;;;;;;;;;4954910;28;20114;-75
2024/01/08 13:42:37;;;;;;;0.82;0.73;;;;;;;;;;4955635;28;20054;-75
2024/01/08 13:45:05;;;;;;;2.10;1.95;;;;;;;;;;4956268;28;20063;-75
2024/01/08 13:47:33;;;;;;;1.15;1.08;;;;;;;;;;4949895;28;20066;-74
2024/01/08 13:50:02;;;;;;;0.73;0.73;;;;;;;;;;4953936;28;20487;-75
2024/01/08 13:52:29;;;;;;;0.32;0.32;;;;;;;;;;4942212;28;20296;-75
2024/01/08 13:54:57;;;;;;;0.22;0.22;;;;;;;;;;4945517;28;20070;-74
2024/01/08 13:57:25;;;;;;;0.73;0.73;;;;;;;;;;4942413;28;20473;-75
2024/01/08 13:59:55;;;;;;;0.50;0.50;;;;;;;;;;4942929;28;20043;-75
2024/01/08 14:02:23;;;;;;;0.55;0.55;;;;;;;;;;4944770;28;20427;-74
2024/01/08 14:04:53;;;;;;;2.15;1.95;;;;;;;;;;4952604;28;20133;-75
2024/01/08 14:07:20;;;;;;;0.90;0.88;;;;;;;;;;4942397;28;20043;-75
2024/01/08 14:09:48;;;;;;;1.48;1.38;;;;;;;;;;4951130;28;20050;-74
2024/01/08 14:12:16;;;;;;;0.40;0.40;;;;;;;;;;4960787;28;20125;-75
2024/01/08 14:14:43;;;;;;;1.48;0.80;;;;;;;;;;4955079;28;20055;-75
2024/01/08 14:17:12;;;;;;;0.30;0.30;;;;;;;;;;4956346;28;20087;-75
2024/01/08 14:19:39;;;;;;;1.55;1.17;;;;;;;;;;4955994;28;20059;-74
2024/01/08 14:22:07;;;;;;;0.65;0.65;;;;;;;;;;4952521;28;20513;-75
2024/01/08 14:24:35;;;;;;;0.68;0.50;;;;;;;;;;4961074;28;20051;-74
2024/01/08 14:27:03;;;;;;;1.92;1.65;;;;;;;;;;4932226;28;20533;-74
2024/01/08 14:29:30;;;;;;;0.38;0.38;;;;;;;;;;4944154;28;20059;-74
2024/01/08 14:31:59;;;;;;;2.05;1.75;;;;;;;;;;4947433;28;20055;-75
2024/01/08 14:34:27;;;;;;;3.28;2.20;;;;;;;;;;4947462;28;20035;-74
2024/01/08 14:36:56;;;;;;;4.40;3.22;;;;;;;;;;4948047;28;20058;-75
2024/01/08 14:39:24;;;;;;;0.40;0.40;;;;;;;;;;4944846;28;20434;-75
2024/01/08 14:41:52;;;;;;;2.42;2.05;;;;;;;;;;4937518;28;20172;-74
2024/01/08 14:44:20;;;;;;;2.80;2.60;;;;;;;;;;4945542;28;20050;-75
2024/01/08 14:46:47;;;;;;;3.05;2.78;;;;;;;;;;4946507;28;20054;-74
2024/01/08 14:49:17;;;;;;;0.57;0.57;;;;;;;;;;4946145;28;20481;-74